createdAt,value
2023-02-24T00:01:13.185Z,101130.50
2023-02-24T00:03:39.600Z,101132.09
2023-02-24T00:06:11.860Z,101128.03
2023-02-24T00:08:39.898Z,101125.81
2023-02-24T00:11:14.393Z,101118.31
2023-02-24T00:13:41.481Z,101112.22
2023-02-24T00:16:08.063Z,101119.78
2023-02-24T00:18:34.986Z,101112.25
2023-02-24T00:21:11.063Z,101112.16
2023-02-24T00:23:38.313Z,101114.56
2023-02-24T00:26:06.726Z,101100.16
2023-02-24T00:28:34.393Z,101100.53
2023-02-24T00:31:16.268Z,101099.44
2023-02-24T00:33:43.793Z,101105.50
2023-02-24T00:36:17.053Z,101101.34
2023-02-24T00:38:46.927Z,101088.06
2023-02-24T00:41:22.416Z,101082.03
2023-02-24T00:43:49.887Z,101077.78
2023-02-24T00:46:17.705Z,101081.25
2023-02-24T00:48:45.945Z,101064.59
2023-02-24T00:51:14.447Z,101069.13
2023-02-24T00:53:40.898Z,101060.78
2023-02-24T00:56:13.782Z,101054.78
2023-02-24T00:58:40.582Z,101051.00
2023-02-24T01:01:23.771Z,101045.31
2023-02-24T01:03:51.667Z,101038.50
2023-02-24T01:06:21.919Z,101035.81
2023-02-24T01:08:49.897Z,101027.16
2023-02-24T01:11:41.266Z,101020.34
2023-02-24T01:14:15.886Z,101014.63
2023-02-24T01:16:45.026Z,101022.56
2023-02-24T01:19:12.506Z,101008.22
2023-02-24T01:21:38.990Z,100997.22
2023-02-24T01:24:05.773Z,101001.75
2023-02-24T01:26:32.398Z,101000.63
2023-02-24T01:28:58.861Z,100997.59
2023-02-24T01:31:25.752Z,100990.00
2023-02-24T01:33:52.401Z,100980.16
2023-02-24T01:36:21.989Z,100976.38
2023-02-24T01:38:49.184Z,100967.66
2023-02-24T01:41:18.899Z,100972.22
2023-02-24T01:44:15.032Z,100968.81
2023-02-24T01:46:43.977Z,100963.13
2023-02-24T01:49:25.037Z,100961.59
2023-02-24T01:52:02.083Z,100946.44
2023-02-24T01:54:34.088Z,100947.97
2023-02-24T01:57:01.823Z,100941.53
2023-02-24T01:59:29.764Z,100941.16
2023-02-24T02:02:04.261Z,100926.75
2023-02-24T02:04:38.321Z,100922.19
2023-02-24T02:07:05.101Z,100926.00
2023-02-24T02:09:32.790Z,100916.91
2023-02-24T02:11:59.175Z,100908.22
2023-02-24T02:14:27.036Z,100913.88
2023-02-24T02:17:12.148Z,100900.25
2023-02-24T02:20:15.739Z,100901.72
2023-02-24T02:23:09.794Z,100899.50
2023-02-24T02:26:10.788Z,100899.13
2023-02-24T02:29:01.956Z,100897.59
2023-02-24T02:31:32.476Z,100890.41
2023-02-24T02:34:05.735Z,100886.59
2023-02-24T02:36:48.840Z,100882.06
2023-02-24T02:39:33.747Z,100877.16
2023-02-24T02:42:30.140Z,100866.91
2023-02-24T02:45:05.318Z,100865.41
2023-02-24T02:47:41.231Z,100867.69
2023-02-24T02:50:13.134Z,100863.50
2023-02-24T02:52:48.322Z,100867.28
2023-02-24T02:55:23.843Z,100860.47
2023-02-24T02:57:53.624Z,100864.25
2023-02-24T03:00:23.814Z,100856.34
2023-02-24T03:02:57.380Z,100861.63
2023-02-24T03:05:33.913Z,100843.84
2023-02-24T03:08:04.764Z,100845.38
2023-02-24T03:10:34.532Z,100845.00
2023-02-24T03:13:03.922Z,100845.00
2023-02-24T03:15:33.105Z,100844.97
2023-02-24T03:18:10.305Z,100835.88
2023-02-24T03:20:46.268Z,100832.09
2023-02-24T03:23:18.772Z,100814.31
2023-02-24T03:25:55.160Z,100815.44
2023-02-24T03:28:38.296Z,100816.59
2023-02-24T03:31:10.979Z,100801.03
2023-02-24T03:34:16.752Z,100808.63
2023-02-24T03:36:43.731Z,100802.19
2023-02-24T03:39:12.131Z,100796.53
2023-02-24T03:41:54.107Z,100790.47
2023-02-24T03:44:23.406Z,100788.94
2023-02-24T03:46:49.791Z,100786.69
2023-02-24T03:49:16.716Z,100788.22
2023-02-24T03:52:08.870Z,100779.13
2023-02-24T03:54:55.920Z,100783.28
2023-02-24T03:57:25.246Z,100789.75
2023-02-24T04:00:25.762Z,100772.69
2023-02-24T04:03:03.414Z,100769.28
2023-02-24T04:05:32.650Z,100771.53
2023-02-24T04:08:08.929Z,100755.63
2023-02-24T04:10:52.540Z,100763.97
2023-02-24T04:13:28.430Z,100750.00
2023-02-24T04:15:59.739Z,100749.63
2023-02-24T04:18:28.720Z,100739.75
2023-02-24T04:21:00.403Z,100729.94
2023-02-24T04:23:30.131Z,100724.25
2023-02-24T04:25:57.052Z,100715.97
2023-02-24T04:28:24.718Z,100719.38
2023-02-24T04:30:54.246Z,100716.31
2023-02-24T04:33:21.171Z,100700.00
2023-02-24T04:35:50.434Z,100699.59
2023-02-24T04:38:17.836Z,100693.91
2023-02-24T04:40:44.223Z,100685.59
2023-02-24T04:43:11.077Z,100683.34
2023-02-24T04:45:40.068Z,100670.09
2023-02-24T04:48:12.713Z,100661.75
2023-02-24T04:50:42.986Z,100662.50
2023-02-24T04:53:17.339Z,100657.94
2023-02-24T04:55:48.623Z,100651.88
2023-02-24T04:58:21.114Z,100648.50
2023-02-24T05:00:52.396Z,100633.06
2023-02-24T05:03:19.996Z,100632.66
2023-02-24T05:05:57.210Z,100634.53
2023-02-24T05:08:25.249Z,100628.78
2023-02-24T05:10:52.825Z,100621.25
2023-02-24T05:13:27.170Z,100607.69
2023-02-24T05:15:58.826Z,100606.13
2023-02-24T05:18:25.823Z,100590.31
2023-02-24T05:21:13.351Z,100587.28
2023-02-24T05:23:45.963Z,100585.47
2023-02-24T05:26:16.570Z,100585.38
2023-02-24T05:28:44.709Z,100578.59
2023-02-24T05:31:17.817Z,100577.44
2023-02-24T05:33:46.198Z,100571.06
2023-02-24T05:36:17.381Z,100557.06
2023-02-24T05:38:45.202Z,100559.72
2023-02-24T05:41:20.060Z,100555.13
2023-02-24T05:43:52.569Z,100542.34
2023-02-24T05:46:29.020Z,100535.44
2023-02-24T05:48:58.166Z,100532.41
2023-02-24T05:51:25.676Z,100530.09
2023-02-24T05:53:56.136Z,100515.31
2023-02-24T05:56:23.427Z,100511.97
2023-02-24T05:59:01.786Z,100513.81
2023-02-24T06:01:34.945Z,100501.31
2023-02-24T06:04:06.582Z,100495.66
2023-02-24T06:06:40.733Z,100502.78
2023-02-24T06:09:12.744Z,100490.31
2023-02-24T06:11:45.151Z,100488.53
2023-02-24T06:14:12.775Z,100482.44
2023-02-24T06:16:41.180Z,100482.03
2023-02-24T06:19:09.828Z,100477.03
2023-02-24T06:21:41.444Z,100478.59
2023-02-24T06:24:18.486Z,100480.19
2023-02-24T06:26:45.850Z,100478.59
2023-02-24T06:29:16.967Z,100484.69
2023-02-24T06:31:44.185Z,100477.50
2023-02-24T06:34:13.101Z,100472.28
2023-02-24T06:36:39.966Z,100475.97
2023-02-24T06:39:09.400Z,100462.44
2023-02-24T06:41:37.956Z,100464.22
2023-02-24T06:44:04.715Z,100463.53
2023-02-24T06:46:31.476Z,100459.09
2023-02-24T06:49:01.033Z,100454.56
2023-02-24T06:51:30.386Z,100456.47
2023-02-24T06:53:59.313Z,100445.75
2023-02-24T06:56:26.679Z,100427.56
2023-02-24T06:58:59.016Z,100431.75
2023-02-24T07:01:28.736Z,100432.22
2023-02-24T07:04:12.892Z,100431.13
2023-02-24T07:06:41.200Z,100421.16
2023-02-24T07:09:13.169Z,100402.72
2023-02-24T07:11:46.411Z,100404.97
2023-02-24T07:14:13.402Z,100393.63
2023-02-24T07:16:45.662Z,100394.09
2023-02-24T07:19:15.987Z,100391.03
2023-02-24T07:21:46.692Z,100381.94
2023-02-24T07:24:20.165Z,100389.72
2023-02-24T07:26:51.689Z,100384.84
2023-02-24T07:29:18.607Z,100373.59
2023-02-24T07:31:45.594Z,100373.50
2023-02-24T07:34:15.173Z,100364.63
2023-02-24T07:36:49.313Z,100359.28
2023-02-24T07:39:16.569Z,100357.75
2023-02-24T07:41:49.349Z,100355.19
2023-02-24T07:44:20.480Z,100346.44
2023-02-24T07:46:49.225Z,100348.97
2023-02-24T07:49:19.702Z,100350.56
2023-02-24T07:51:52.634Z,100344.19
2023-02-24T07:54:21.222Z,100343.13
2023-02-24T07:56:56.285Z,100337.41
2023-02-24T07:59:30.473Z,100337.91
2023-02-24T08:01:57.328Z,100333.25
2023-02-24T08:04:26.774Z,100338.22
2023-02-24T08:06:56.687Z,100329.22
2023-02-24T08:09:44.235Z,100312.91
2023-02-24T08:12:18.085Z,100312.53
2023-02-24T08:14:50.757Z,100308.69
2023-02-24T08:17:26.360Z,100305.56
2023-02-24T08:20:15.561Z,100301.09
2023-02-24T08:22:52.174Z,100292.13
2023-02-24T08:25:22.638Z,100297.72
2023-02-24T08:28:06.723Z,100290.75
2023-02-24T08:30:55.577Z,100274.16
2023-02-24T08:33:23.114Z,100270.19
2023-02-24T08:36:00.824Z,100269.38
2023-02-24T08:38:39.527Z,100256.56
2023-02-24T08:41:11.030Z,100250.16
2023-02-24T08:43:39.183Z,100254.66
2023-02-24T08:46:18.369Z,100247.38
2023-02-24T08:48:56.665Z,100245.88
2023-02-24T08:51:34.841Z,100234.50
2023-02-24T08:54:11.730Z,100236.06
2023-02-24T08:56:43.262Z,100239.75
2023-02-24T08:59:28.984Z,100235.97
2023-02-24T09:02:17.239Z,100225.66
2023-02-24T09:04:46.923Z,100214.81
2023-02-24T09:07:18.724Z,100200.94
2023-02-24T09:09:45.345Z,100200.88
2023-02-24T09:12:22.187Z,100197.41
2023-02-24T09:14:57.373Z,100201.94
2023-02-24T09:17:40.085Z,100188.53
2023-02-24T09:20:27.261Z,100182.81
2023-02-24T09:23:03.113Z,100176.38
2023-02-24T09:25:41.030Z,100182.03
2023-02-24T09:28:19.282Z,100177.16
2023-02-24T09:30:53.667Z,100163.81
2023-02-24T09:33:55.775Z,100155.06
2023-02-24T09:36:30.473Z,100167.56
2023-02-24T09:39:01.874Z,100164.53
2023-02-24T09:41:54.019Z,100143.41
2023-02-24T09:44:35.440Z,100147.09
2023-02-24T09:47:17.268Z,100147.25
2023-02-24T09:49:56.309Z,100145.63
2023-02-24T09:52:39.587Z,100138.09
2023-02-24T09:55:28.255Z,100131.19
2023-02-24T09:58:16.931Z,100139.03
2023-02-24T10:01:00.513Z,100131.72
2023-02-24T10:03:47.912Z,100117.63
2023-02-24T10:06:35.389Z,100105.97
2023-02-24T10:09:16.222Z,100095.41
2023-02-24T10:11:53.601Z,100098.13
2023-02-24T10:14:27.451Z,100097.66
2023-02-24T10:17:14.950Z,100091.44
2023-02-24T10:19:41.866Z,100078.91
2023-02-24T10:22:27.339Z,100095.50
2023-02-24T10:25:21.128Z,100090.34
2023-02-24T10:28:08.027Z,100080.09
2023-02-24T10:30:41.901Z,100077.25
2023-02-24T10:33:18.785Z,100068.84
2023-02-24T10:35:45.452Z,100077.56
2023-02-24T10:38:12.347Z,100059.25
2023-02-24T10:40:56.778Z,100072.09
2023-02-24T10:43:33.192Z,100072.09
2023-02-24T10:46:06.894Z,100060.78
2023-02-24T10:48:41.851Z,100046.03
2023-02-24T10:51:20.382Z,100055.78
2023-02-24T10:54:09.264Z,100049.34
2023-02-24T10:56:55.333Z,100043.75
2023-02-24T10:59:24.524Z,100044.75
2023-02-24T11:01:59.957Z,100032.34
2023-02-24T11:04:32.342Z,100024.41
2023-02-24T11:07:25.211Z,100024.94
2023-02-24T11:10:13.739Z,100026.47
2023-02-24T11:13:10.014Z,100010.44
2023-02-24T11:16:15.793Z,100009.69
2023-02-24T11:18:46.928Z,100006.88
2023-02-24T11:21:14.414Z,100010.63
2023-02-24T11:23:49.375Z,100011.34
2023-02-24T11:26:18.741Z,100010.34
2023-02-24T11:29:12.057Z,100017.00
2023-02-24T11:32:00.424Z,100001.66
2023-02-24T11:34:29.865Z,100011.69
2023-02-24T11:37:24.951Z,100000.03
2023-02-24T11:40:18.889Z,99991.34
2023-02-24T11:42:52.477Z,99989.72
2023-02-24T11:45:41.358Z,99989.50
2023-02-24T11:48:21.312Z,99984.91
2023-02-24T11:50:55.178Z,99977.66
2023-02-24T11:53:45.335Z,99977.88
2023-02-24T11:56:35.079Z,99962.22
2023-02-24T11:59:20.218Z,99955.25
2023-02-24T12:02:05.600Z,99938.66
2023-02-24T12:04:40.082Z,99940.66
2023-02-24T12:07:08.657Z,99937.16
2023-02-24T12:09:48.409Z,99924.25
2023-02-24T12:12:23.432Z,99923.78
2023-02-24T12:14:56.398Z,99926.69
2023-02-24T12:17:35.909Z,99917.59
2023-02-24T12:20:06.400Z,99899.91
2023-02-24T12:22:55.125Z,99904.00
2023-02-24T12:25:27.359Z,99897.91
2023-02-24T12:28:12.618Z,99899.19
2023-02-24T12:30:51.253Z,99893.88
2023-02-24T12:33:38.090Z,99879.53
2023-02-24T12:36:20.037Z,99880.44
2023-02-24T12:38:50.564Z,99877.69
2023-02-24T12:41:38.104Z,99865.22
2023-02-24T12:44:40.817Z,99866.78
2023-02-24T12:47:13.439Z,99866.66
2023-02-24T12:49:51.616Z,99859.59
2023-02-24T12:52:33.804Z,99856.38
2023-02-24T12:55:09.379Z,99863.66
2023-02-24T12:57:44.699Z,99854.50
2023-02-24T13:00:22.200Z,99847.09
2023-02-24T13:03:07.451Z,99835.81
2023-02-24T13:05:40.964Z,99841.88
2023-02-24T13:08:21.694Z,99833.09
2023-02-24T13:11:02.989Z,99829.13
2023-02-24T13:13:38.295Z,99820.44
2023-02-24T13:16:04.764Z,99812.78
2023-02-24T13:18:34.902Z,99807.38
2023-02-24T13:21:05.896Z,99807.03
2023-02-24T13:23:33.427Z,99799.59
2023-02-24T13:26:00.074Z,99796.63
2023-02-24T13:28:36.362Z,99782.50
2023-02-24T13:31:06.189Z,99797.59
2023-02-24T13:33:35.129Z,99789.56
2023-02-24T13:36:09.721Z,99780.38
2023-02-24T13:38:40.154Z,99783.19
2023-02-24T13:41:08.717Z,99780.63
2023-02-24T13:43:35.998Z,99778.06
2023-02-24T13:46:14.031Z,99781.25
2023-02-24T13:48:47.280Z,99779.63
2023-02-24T13:51:33.614Z,99776.03
2023-02-24T13:54:53.937Z,99776.38
2023-02-24T13:57:42.399Z,99775.00
2023-02-24T14:00:15.284Z,99769.28
2023-02-24T14:02:44.040Z,99762.34
2023-02-24T14:05:18.219Z,99768.53
2023-02-24T14:07:47.626Z,99771.75
2023-02-24T14:10:20.204Z,99753.41
2023-02-24T14:12:47.657Z,99762.09
2023-02-24T14:15:20.230Z,99751.19
2023-02-24T14:18:01.937Z,99753.31
2023-02-24T14:20:32.692Z,99743.94
2023-02-24T14:22:59.786Z,99744.91
2023-02-24T14:25:34.864Z,99736.16
2023-02-24T14:28:01.625Z,99742.56
2023-02-24T14:30:39.757Z,99733.56
2023-02-24T14:33:08.103Z,99732.13
2023-02-24T14:35:37.101Z,99726.16
2023-02-24T14:38:05.214Z,99721.72
2023-02-24T14:40:32.775Z,99717.34
2023-02-24T14:43:00.144Z,99715.50
2023-02-24T14:45:28.695Z,99716.31
2023-02-24T14:47:56.910Z,99713.03
2023-02-24T14:50:30.545Z,99706.09
2023-02-24T14:53:07.777Z,99703.06
2023-02-24T14:55:40.486Z,99694.63
2023-02-24T14:58:23.872Z,99687.06
2023-02-24T15:01:02.058Z,99691.06
2023-02-24T15:03:36.847Z,99691.75
2023-02-24T15:06:13.432Z,99693.16
2023-02-24T15:08:46.824Z,99690.66
2023-02-24T15:11:16.162Z,99698.16
2023-02-24T15:13:51.377Z,99687.31
2023-02-24T15:16:40.307Z,99683.09
2023-02-24T15:19:26.383Z,99688.25
2023-02-24T15:21:53.497Z,99686.44
2023-02-24T15:24:34.552Z,99683.47
2023-02-24T15:27:16.082Z,99675.78
2023-02-24T15:29:44.006Z,99672.94
2023-02-24T15:32:19.128Z,99684.78
2023-02-24T15:34:47.972Z,99665.47
2023-02-24T15:37:17.019Z,99676.50
2023-02-24T15:39:44.663Z,99686.53
2023-02-24T15:42:31.699Z,99687.25
2023-02-24T15:45:00.598Z,99685.19
2023-02-24T15:47:30.319Z,99682.44
2023-02-24T15:49:56.939Z,99682.53
2023-02-24T15:52:26.116Z,99677.22
2023-02-24T15:54:54.276Z,99673.81
2023-02-24T15:57:21.174Z,99665.94
2023-02-24T15:59:48.603Z,99676.38
2023-02-24T16:02:20.799Z,99668.81
2023-02-24T16:04:48.734Z,99668.56
2023-02-24T16:07:30.744Z,99671.03
2023-02-24T16:09:57.499Z,99684.22
2023-02-24T16:12:28.751Z,99671.00
2023-02-24T16:15:02.129Z,99679.09
2023-02-24T16:17:32.688Z,99673.41
2023-02-24T16:19:59.754Z,99673.69
2023-02-24T16:22:26.222Z,99680.38
2023-02-24T16:24:52.665Z,99677.72
2023-02-24T16:27:20.944Z,99681.47
2023-02-24T16:29:49.510Z,99671.22
2023-02-24T16:32:16.163Z,99678.59
2023-02-24T16:34:42.639Z,99681.09
2023-02-24T16:37:17.925Z,99685.19
2023-02-24T16:39:44.666Z,99679.38
2023-02-24T16:42:11.090Z,99691.47
2023-02-24T16:44:37.690Z,99715.25
2023-02-24T16:47:06.555Z,99692.78
2023-02-24T16:49:33.302Z,99694.19
2023-02-24T16:52:00.026Z,99682.78
2023-02-24T16:54:29.142Z,99701.19
2023-02-24T16:56:56.562Z,99698.69
2023-02-24T16:59:23.101Z,99715.09
2023-02-24T17:01:49.563Z,99706.31
2023-02-24T17:04:15.979Z,99707.34
2023-02-24T17:06:42.448Z,99712.38
2023-02-24T17:09:08.913Z,99719.94
2023-02-24T17:11:35.347Z,99717.13
2023-02-24T17:14:01.726Z,99715.38
2023-02-24T17:16:29.837Z,99709.91
2023-02-24T17:18:56.284Z,99715.63
2023-02-24T17:21:23.109Z,99726.06
2023-02-24T17:23:51.453Z,99723.09
2023-02-24T17:26:17.867Z,99716.06
2023-02-24T17:28:44.376Z,99724.94
2023-02-24T17:31:10.919Z,99731.38
2023-02-24T17:33:37.425Z,99725.59
2023-02-24T17:36:04.097Z,99730.84
2023-02-24T17:38:30.517Z,99730.50
2023-02-24T17:40:57.673Z,99730.69
2023-02-24T17:43:24.105Z,99732.66
2023-02-24T17:45:51.767Z,99731.22
2023-02-24T17:48:18.544Z,99727.41
2023-02-24T17:50:47.590Z,99735.06
2023-02-24T17:53:14.394Z,99723.63
2023-02-24T17:55:55.775Z,99733.88
2023-02-24T17:58:26.257Z,99732.88
2023-02-24T18:00:52.645Z,99729.91
2023-02-24T18:03:20.038Z,99728.00
2023-02-24T18:05:46.571Z,99730.59
2023-02-24T18:08:14.449Z,99728.59
2023-02-24T18:10:40.984Z,99731.22
2023-02-24T18:13:07.621Z,99739.03
2023-02-24T18:15:34.019Z,99733.78
2023-02-24T18:18:00.587Z,99740.94
2023-02-24T18:20:27.366Z,99735.53
2023-02-24T18:22:53.844Z,99744.50
2023-02-24T18:25:20.251Z,99737.63
2023-02-24T18:27:46.636Z,99744.34
2023-02-24T18:30:17.965Z,99730.88
2023-02-24T18:32:44.868Z,99734.72
2023-02-24T18:35:12.935Z,99734.41
2023-02-24T18:37:39.308Z,99743.00
2023-02-24T18:40:06.480Z,99728.25
2023-02-24T18:42:33.135Z,99727.84
2023-02-24T18:44:59.910Z,99729.91
2023-02-24T18:47:26.322Z,99725.75
2023-02-24T18:49:52.708Z,99725.59
2023-02-24T18:52:19.105Z,99710.34
2023-02-24T18:54:45.687Z,99712.66
2023-02-24T18:57:12.359Z,99722.19
2023-02-24T18:59:38.738Z,99717.97
2023-02-24T19:02:05.265Z,99726.25
2023-02-24T19:04:31.701Z,99727.84
2023-02-24T19:06:58.109Z,99718.97
2023-02-24T19:09:24.678Z,99726.41
2023-02-24T19:11:52.148Z,99721.09
2023-02-24T19:14:18.657Z,99733.09
2023-02-24T19:16:45.267Z,99716.66
2023-02-24T19:19:16.973Z,99715.81
2023-02-24T19:21:49.409Z,99727.94
2023-02-24T19:24:17.528Z,99727.25
2023-02-24T19:26:45.832Z,99726.75
2023-02-24T19:29:14.600Z,99718.44
2023-02-24T19:31:41.493Z,99719.59
2023-02-24T19:34:11.507Z,99728.88
2023-02-24T19:36:38.451Z,99722.72
2023-02-24T19:39:05.846Z,99729.41
2023-02-24T19:41:33.037Z,99729.56
2023-02-24T19:44:02.820Z,99724.09
2023-02-24T19:46:33.020Z,99732.56
2023-02-24T19:49:02.727Z,99730.16
2023-02-24T19:51:30.003Z,99742.91
2023-02-24T19:53:58.997Z,99740.81
2023-02-24T19:56:27.996Z,99745.66
2023-02-24T19:58:55.958Z,99739.50
2023-02-24T20:01:23.065Z,99746.97
2023-02-24T20:03:50.368Z,99745.19
2023-02-24T20:06:24.109Z,99749.75
2023-02-24T20:08:50.692Z,99737.88
2023-02-24T20:11:18.688Z,99750.78
2023-02-24T20:13:45.603Z,99746.13
2023-02-24T20:16:17.555Z,99751.22
2023-02-24T20:18:44.704Z,99744.28
2023-02-24T20:21:12.624Z,99750.78
2023-02-24T20:23:43.583Z,99751.59
2023-02-24T20:26:11.967Z,99744.44
2023-02-24T20:28:38.374Z,99739.75
2023-02-24T20:31:13.259Z,99738.94
2023-02-24T20:33:40.843Z,99748.13
2023-02-24T20:36:12.424Z,99752.69
2023-02-24T20:38:39.300Z,99752.22
2023-02-24T20:41:06.314Z,99749.41
2023-02-24T20:43:33.165Z,99756.63
2023-02-24T20:46:00.217Z,99758.97
2023-02-24T20:48:26.655Z,99763.34
2023-02-24T20:50:55.383Z,99771.34
2023-02-24T20:53:21.951Z,99766.44
2023-02-24T20:55:48.449Z,99768.47
2023-02-24T20:58:14.971Z,99764.16
2023-02-24T21:00:41.472Z,99755.66
2023-02-24T21:03:11.973Z,99747.19
2023-02-24T21:05:39.106Z,99740.88
2023-02-24T21:08:05.930Z,99759.16
2023-02-24T21:10:32.885Z,99757.31
2023-02-24T21:12:59.705Z,99759.50
2023-02-24T21:15:26.143Z,99769.47
2023-02-24T21:17:52.810Z,99756.63
2023-02-24T21:20:19.602Z,99751.19
2023-02-24T21:22:46.110Z,99763.59
2023-02-24T21:25:13.688Z,99766.19
2023-02-24T21:27:40.172Z,99767.31
2023-02-24T21:30:07.665Z,99758.28
2023-02-24T21:32:34.445Z,99767.53
2023-02-24T21:35:02.086Z,99768.50
2023-02-24T21:37:28.852Z,99763.50
2023-02-24T21:39:55.270Z,99765.44
2023-02-24T21:42:23.461Z,99763.84
2023-02-24T21:44:50.991Z,99766.03
2023-02-24T21:47:21.868Z,99767.31
2023-02-24T21:49:48.282Z,99764.94
2023-02-24T21:52:14.682Z,99771.00
2023-02-24T21:54:42.230Z,99771.41
2023-02-24T21:57:08.676Z,99768.94
2023-02-24T21:59:35.237Z,99760.19
2023-02-24T22:02:01.754Z,99776.31
2023-02-24T22:04:28.229Z,99766.50
2023-02-24T22:06:54.624Z,99771.56
2023-02-24T22:09:21.097Z,99754.34
2023-02-24T22:11:48.501Z,99776.66
2023-02-24T22:14:15.448Z,99782.06
2023-02-24T22:16:42.622Z,99785.69
2023-02-24T22:19:09.234Z,99771.00
2023-02-24T22:21:35.904Z,99780.66
2023-02-24T22:24:03.472Z,99797.47
2023-02-24T22:26:31.840Z,99799.34
2023-02-24T22:28:59.581Z,99790.50
2023-02-24T22:31:28.200Z,99790.41
2023-02-24T22:33:55.086Z,99786.81
2023-02-24T22:36:27.839Z,99793.50
2023-02-24T22:38:55.406Z,99792.47
2023-02-24T22:41:24.983Z,99794.72
2023-02-24T22:43:51.740Z,99800.78
2023-02-24T22:46:21.587Z,99795.38
2023-02-24T22:48:48.339Z,99795.25
2023-02-24T22:51:15.087Z,99795.78
2023-02-24T22:53:43.440Z,99799.72
2023-02-24T22:56:14.900Z,99802.38
2023-02-24T22:58:41.739Z,99805.53
2023-02-24T23:01:12.973Z,99803.34
2023-02-24T23:03:40.349Z,99803.88
2023-02-24T23:06:13.428Z,99816.00
2023-02-24T23:08:42.104Z,99817.34
2023-02-24T23:11:20.798Z,99827.47
2023-02-24T23:13:48.624Z,99826.88
2023-02-24T23:16:18.622Z,99833.50
2023-02-24T23:18:50.704Z,99838.56
2023-02-24T23:21:31.461Z,99853.16
2023-02-24T23:23:57.983Z,99837.06
2023-02-24T23:26:35.720Z,99843.91
2023-02-24T23:29:02.670Z,99848.84
2023-02-24T23:31:29.225Z,99846.91
2023-02-24T23:33:56.070Z,99862.41
2023-02-24T23:36:23.252Z,99855.75
2023-02-24T23:38:49.859Z,99865.50
2023-02-24T23:41:16.461Z,99866.03
2023-02-24T23:43:42.947Z,99866.25
2023-02-24T23:46:11.909Z,99865.00
2023-02-24T23:48:38.515Z,99865.97
2023-02-24T23:51:07.069Z,99882.50
2023-02-24T23:53:41.406Z,99884.38
2023-02-24T23:56:09.938Z,99876.13
2023-02-24T23:58:37.365Z,99898.56
